sensor_id;sensor_type;location;lat;lon;timestamp;temperature;humidity
13198;DHT22;6664;52.514;13.440;2023-02-15T00:00:18;3.30;81.00
13198;DHT22;6664;52.514;13.440;2023-02-15T00:03:04;3.20;82.80
13198;DHT22;6664;52.514;13.440;2023-02-15T00:05:53;3.10;85.50
13198;DHT22;6664;52.514;13.440;2023-02-15T00:08:41;3.00;87.00
13198;DHT22;6664;52.514;13.440;2023-02-15T00:11:27;2.80;87.10
13198;DHT22;6664;52.514;13.440;2023-02-15T00:14:25;2.70;89.30
13198;DHT22;6664;52.514;13.440;2023-02-15T00:17:11;2.70;91.40
13198;DHT22;6664;52.514;13.440;2023-02-15T00:19:57;2.60;91.70
13198;DHT22;6664;52.514;13.440;2023-02-15T00:22:43;2.60;92.20
13198;DHT22;6664;52.514;13.440;2023-02-15T00:25:28;2.60;93.70
13198;DHT22;6664;52.514;13.440;2023-02-15T00:28:14;2.50;94.20
13198;DHT22;6664;52.514;13.440;2023-02-15T00:31:10;2.50;94.40
13198;DHT22;6664;52.514;13.440;2023-02-15T00:34:04;2.40;94.50
13198;DHT22;6664;52.514;13.440;2023-02-15T00:36:53;2.30;95.20
13198;DHT22;6664;52.514;13.440;2023-02-15T00:39:39;2.30;96.30
13198;DHT22;6664;52.514;13.440;2023-02-15T00:42:25;2.40;96.90
13198;DHT22;6664;52.514;13.440;2023-02-15T00:45:11;2.40;98.60
13198;DHT22;6664;52.514;13.440;2023-02-15T00:47:56;2.20;97.30
13198;DHT22;6664;52.514;13.440;2023-02-15T00:50:48;2.10;97.60
13198;DHT22;6664;52.514;13.440;2023-02-15T00:53:36;1.90;97.40
13198;DHT22;6664;52.514;13.440;2023-02-15T00:56:23;1.80;97.90
13198;DHT22;6664;52.514;13.440;2023-02-15T00:59:09;2.00;99.20
13198;DHT22;6664;52.514;13.440;2023-02-15T01:01:54;1.90;99.20
13198;DHT22;6664;52.514;13.440;2023-02-15T01:04:40;1.80;99.90
13198;DHT22;6664;52.514;13.440;2023-02-15T01:07:25;1.70;99.90
13198;DHT22;6664;52.514;13.440;2023-02-15T01:10:11;1.70;99.90
13198;DHT22;6664;52.514;13.440;2023-02-15T01:12:57;1.70;99.90
13198;DHT22;6664;52.514;13.440;2023-02-15T01:15:44;1.60;99.90
13198;DHT22;6664;52.514;13.440;2023-02-15T01:18:34;1.60;99.90
13198;DHT22;6664;52.514;13.440;2023-02-15T01:21:38;1.60;99.90
13198;DHT22;6664;52.514;13.440;2023-02-15T01:24:26;1.50;99.90
13198;DHT22;6664;52.514;13.440;2023-02-15T01:27:14;1.40;99.90
13198;DHT22;6664;52.514;13.440;2023-02-15T01:30:00;1.40;99.90
13198;DHT22;6664;52.514;13.440;2023-02-15T01:32:46;1.40;99.90
13198;DHT22;6664;52.514;13.440;2023-02-15T01:35:32;1.50;99.90
13198;DHT22;6664;52.514;13.440;2023-02-15T01:38:18;1.40;99.90
13198;DHT22;6664;52.514;13.440;2023-02-15T01:41:04;1.30;99.90
13198;DHT22;6664;52.514;13.440;2023-02-15T01:48:01;1.30;99.90
13198;DHT22;6664;52.514;13.440;2023-02-15T01:50:53;1.20;99.90
13198;DHT22;6664;52.514;13.440;2023-02-15T01:53:54;1.20;99.90
13198;DHT22;6664;52.514;13.440;2023-02-15T01:56:42;1.20;99.90
13198;DHT22;6664;52.514;13.440;2023-02-15T01:59:28;1.20;99.90
13198;DHT22;6664;52.514;13.440;2023-02-15T02:02:16;1.20;99.90
13198;DHT22;6664;52.514;13.440;2023-02-15T02:05:05;1.10;99.90
13198;DHT22;6664;52.514;13.440;2023-02-15T02:07:55;1.00;99.90
13198;DHT22;6664;52.514;13.440;2023-02-15T02:10:42;1.10;99.90
13198;DHT22;6664;52.514;13.440;2023-02-15T02:13:28;1.00;99.90
13198;DHT22;6664;52.514;13.440;2023-02-15T02:22:49;0.80;99.90
13198;DHT22;6664;52.514;13.440;2023-02-15T02:25:52;0.90;99.90
13198;DHT22;6664;52.514;13.440;2023-02-15T02:29:05;0.90;99.90
13198;DHT22;6664;52.514;13.440;2023-02-15T02:35:14;1.00;99.90
13198;DHT22;6664;52.514;13.440;2023-02-15T02:44:44;1.00;99.90
13198;DHT22;6664;52.514;13.440;2023-02-15T02:47:46;1.00;99.90
13198;DHT22;6664;52.514;13.440;2023-02-15T02:50:32;0.90;99.90
13198;DHT22;6664;52.514;13.440;2023-02-15T02:53:19;0.80;99.90
13198;DHT22;6664;52.514;13.440;2023-02-15T02:56:27;0.70;99.90
13198;DHT22;6664;52.514;13.440;2023-02-15T02:59:17;0.90;99.90
13198;DHT22;6664;52.514;13.440;2023-02-15T03:02:09;0.70;99.90
13198;DHT22;6664;52.514;13.440;2023-02-15T03:05:05;0.70;99.90
13198;DHT22;6664;52.514;13.440;2023-02-15T03:07:52;0.90;99.90
13198;DHT22;6664;52.514;13.440;2023-02-15T03:10:39;0.90;99.90
13198;DHT22;6664;52.514;13.440;2023-02-15T03:13:26;0.90;99.90
13198;DHT22;6664;52.514;13.440;2023-02-15T03:16:17;0.70;99.90
13198;DHT22;6664;52.514;13.440;2023-02-15T03:19:20;0.70;99.90
13198;DHT22;6664;52.514;13.440;2023-02-15T03:25:18;0.60;99.90
13198;DHT22;6664;52.514;13.440;2023-02-15T03:28:15;0.60;99.90
13198;DHT22;6664;52.514;13.440;2023-02-15T03:31:06;0.70;99.90
13198;DHT22;6664;52.514;13.440;2023-02-15T03:34:00;0.60;99.90
13198;DHT22;6664;52.514;13.440;2023-02-15T03:37:10;0.60;99.90
13198;DHT22;6664;52.514;13.440;2023-02-15T03:40:54;0.50;99.90
13198;DHT22;6664;52.514;13.440;2023-02-15T03:43:59;0.50;99.90
13198;DHT22;6664;52.514;13.440;2023-02-15T03:46:54;0.60;99.90
13198;DHT22;6664;52.514;13.440;2023-02-15T03:50:00;0.50;99.90
13198;DHT22;6664;52.514;13.440;2023-02-15T03:52:46;0.60;99.90
13198;DHT22;6664;52.514;13.440;2023-02-15T03:55:33;0.60;99.90
13198;DHT22;6664;52.514;13.440;2023-02-15T03:58:19;0.60;99.90
13198;DHT22;6664;52.514;13.440;2023-02-15T04:01:26;0.50;99.90
13198;DHT22;6664;52.514;13.440;2023-02-15T04:04:37;0.40;99.90
13198;DHT22;6664;52.514;13.440;2023-02-15T04:07:23;0.40;99.90
13198;DHT22;6664;52.514;13.440;2023-02-15T04:10:08;0.40;99.90
13198;DHT22;6664;52.514;13.440;2023-02-15T04:13:13;0.40;99.90
13198;DHT22;6664;52.514;13.440;2023-02-15T04:15:58;0.40;99.90
13198;DHT22;6664;52.514;13.440;2023-02-15T04:18:51;0.20;99.90
13198;DHT22;6664;52.514;13.440;2023-02-15T04:21:55;0.30;99.90
13198;DHT22;6664;52.514;13.440;2023-02-15T04:24:59;0.20;99.90
13198;DHT22;6664;52.514;13.440;2023-02-15T04:27:57;0.20;99.90
13198;DHT22;6664;52.514;13.440;2023-02-15T04:30:42;0.10;99.90
13198;DHT22;6664;52.514;13.440;2023-02-15T04:33:27;0.10;99.90
13198;DHT22;6664;52.514;13.440;2023-02-15T04:36:13;0.00;99.90
13198;DHT22;6664;52.514;13.440;2023-02-15T04:38:58;-0.10;99.90
13198;DHT22;6664;52.514;13.440;2023-02-15T04:41:44;0.00;99.90
13198;DHT22;6664;52.514;13.440;2023-02-15T04:44:32;-0.10;99.90
13198;DHT22;6664;52.514;13.440;2023-02-15T04:47:17;-0.20;99.90
13198;DHT22;6664;52.514;13.440;2023-02-15T04:50:03;-0.20;99.90
13198;DHT22;6664;52.514;13.440;2023-02-15T04:52:49;-0.20;99.90
13198;DHT22;6664;52.514;13.440;2023-02-15T04:55:36;-0.30;99.90
13198;DHT22;6664;52.514;13.440;2023-02-15T04:58:22;-0.20;99.90
13198;DHT22;6664;52.514;13.440;2023-02-15T05:01:08;-0.20;99.90
13198;DHT22;6664;52.514;13.440;2023-02-15T05:03:54;-0.30;99.90
13198;DHT22;6664;52.514;13.440;2023-02-15T05:06:41;-0.40;99.90
13198;DHT22;6664;52.514;13.440;2023-02-15T05:09:26;-0.40;99.90
13198;DHT22;6664;52.514;13.440;2023-02-15T05:12:14;-0.40;99.90
13198;DHT22;6664;52.514;13.440;2023-02-15T05:15:00;-0.40;99.90
13198;DHT22;6664;52.514;13.440;2023-02-15T05:17:45;-0.40;99.90
13198;DHT22;6664;52.514;13.440;2023-02-15T05:20:30;-0.40;99.90
13198;DHT22;6664;52.514;13.440;2023-02-15T05:23:17;-0.40;99.90
13198;DHT22;6664;52.514;13.440;2023-02-15T05:26:02;-0.40;99.90
13198;DHT22;6664;52.514;13.440;2023-02-15T05:29:06;-0.40;99.90
13198;DHT22;6664;52.514;13.440;2023-02-15T05:31:54;-0.20;99.90
13198;DHT22;6664;52.514;13.440;2023-02-15T05:34:40;-0.20;99.90
13198;DHT22;6664;52.514;13.440;2023-02-15T05:37:28;-0.10;99.90
13198;DHT22;6664;52.514;13.440;2023-02-15T05:40:13;0.10;99.90
13198;DHT22;6664;52.514;13.440;2023-02-15T05:43:00;0.10;99.90
13198;DHT22;6664;52.514;13.440;2023-02-15T05:45:50;0.30;99.90
13198;DHT22;6664;52.514;13.440;2023-02-15T05:48:39;0.30;99.90
13198;DHT22;6664;52.514;13.440;2023-02-15T05:51:24;0.40;99.90
13198;DHT22;6664;52.514;13.440;2023-02-15T05:54:12;0.40;99.90
13198;DHT22;6664;52.514;13.440;2023-02-15T05:56:57;0.50;99.90
13198;DHT22;6664;52.514;13.440;2023-02-15T05:59:42;0.60;99.90
13198;DHT22;6664;52.514;13.440;2023-02-15T06:02:28;0.60;99.90
13198;DHT22;6664;52.514;13.440;2023-02-15T06:05:16;0.60;99.90
13198;DHT22;6664;52.514;13.440;2023-02-15T06:08:02;0.60;99.90
13198;DHT22;6664;52.514;13.440;2023-02-15T06:10:50;0.70;99.90
13198;DHT22;6664;52.514;13.440;2023-02-15T06:13:35;0.70;99.90
13198;DHT22;6664;52.514;13.440;2023-02-15T06:16:23;0.60;99.90
13198;DHT22;6664;52.514;13.440;2023-02-15T06:19:10;0.70;99.90
13198;DHT22;6664;52.514;13.440;2023-02-15T06:21:58;0.70;99.90
13198;DHT22;6664;52.514;13.440;2023-02-15T06:24:43;0.80;99.90
13198;DHT22;6664;52.514;13.440;2023-02-15T06:27:29;0.80;99.90
13198;DHT22;6664;52.514;13.440;2023-02-15T06:30:15;0.90;99.90
13198;DHT22;6664;52.514;13.440;2023-02-15T06:33:01;0.80;99.90
13198;DHT22;6664;52.514;13.440;2023-02-15T06:35:46;0.70;99.90
13198;DHT22;6664;52.514;13.440;2023-02-15T06:38:32;0.90;99.90
13198;DHT22;6664;52.514;13.440;2023-02-15T06:41:18;0.90;99.90
13198;DHT22;6664;52.514;13.440;2023-02-15T06:44:04;0.90;99.90
13198;DHT22;6664;52.514;13.440;2023-02-15T06:46:49;1.10;99.90
13198;DHT22;6664;52.514;13.440;2023-02-15T06:49:35;1.10;99.90
13198;DHT22;6664;52.514;13.440;2023-02-15T06:52:20;1.10;99.90
13198;DHT22;6664;52.514;13.440;2023-02-15T06:55:06;1.10;99.90
13198;DHT22;6664;52.514;13.440;2023-02-15T06:57:54;1.10;99.90
13198;DHT22;6664;52.514;13.440;2023-02-15T07:00:40;1.20;99.90
13198;DHT22;6664;52.514;13.440;2023-02-15T07:03:25;1.10;99.90
13198;DHT22;6664;52.514;13.440;2023-02-15T07:06:11;1.20;99.90
13198;DHT22;6664;52.514;13.440;2023-02-15T07:08:56;1.30;99.90
13198;DHT22;6664;52.514;13.440;2023-02-15T07:11:44;1.30;99.90
13198;DHT22;6664;52.514;13.440;2023-02-15T07:14:48;1.30;99.90
13198;DHT22;6664;52.514;13.440;2023-02-15T07:17:35;1.60;99.90
13198;DHT22;6664;52.514;13.440;2023-02-15T07:20:24;1.70;99.90
13198;DHT22;6664;52.514;13.440;2023-02-15T07:23:11;1.70;99.90
13198;DHT22;6664;52.514;13.440;2023-02-15T07:25:58;1.70;99.90
13198;DHT22;6664;52.514;13.440;2023-02-15T07:28:44;1.70;99.90
13198;DHT22;6664;52.514;13.440;2023-02-15T07:31:30;1.80;99.90
13198;DHT22;6664;52.514;13.440;2023-02-15T07:34:16;1.80;99.90
13198;DHT22;6664;52.514;13.440;2023-02-15T07:37:01;1.90;99.90
13198;DHT22;6664;52.514;13.440;2023-02-15T07:39:47;1.90;99.90
13198;DHT22;6664;52.514;13.440;2023-02-15T07:42:33;2.10;99.40
13198;DHT22;6664;52.514;13.440;2023-02-15T07:45:19;2.30;98.20
13198;DHT22;6664;52.514;13.440;2023-02-15T07:48:07;2.30;97.30
13198;DHT22;6664;52.514;13.440;2023-02-15T07:50:52;2.20;96.20
13198;DHT22;6664;52.514;13.440;2023-02-15T07:53:39;2.30;95.50
13198;DHT22;6664;52.514;13.440;2023-02-15T07:56:24;2.20;94.50
13198;DHT22;6664;52.514;13.440;2023-02-15T07:59:10;2.20;93.70
13198;DHT22;6664;52.514;13.440;2023-02-15T08:01:58;2.00;93.80
13198;DHT22;6664;52.514;13.440;2023-02-15T08:05:01;2.10;93.70
13198;DHT22;6664;52.514;13.440;2023-02-15T08:07:47;2.20;93.40
13198;DHT22;6664;52.514;13.440;2023-02-15T08:10:32;1.90;91.70
13198;DHT22;6664;52.514;13.440;2023-02-15T08:13:39;1.90;92.60
13198;DHT22;6664;52.514;13.440;2023-02-15T08:19:29;2.30;92.30
13198;DHT22;6664;52.514;13.440;2023-02-15T08:22:15;2.30;92.40
13198;DHT22;6664;52.514;13.440;2023-02-15T08:25:00;2.40;91.40
13198;DHT22;6664;52.514;13.440;2023-02-15T08:27:46;2.50;90.80
13198;DHT22;6664;52.514;13.440;2023-02-15T08:30:32;2.70;90.70
13198;DHT22;6664;52.514;13.440;2023-02-15T08:33:20;2.90;90.30
13198;DHT22;6664;52.514;13.440;2023-02-15T08:36:13;3.00;87.30
13198;DHT22;6664;52.514;13.440;2023-02-15T08:39:01;2.90;88.00
13198;DHT22;6664;52.514;13.440;2023-02-15T08:41:47;3.20;87.20
13198;DHT22;6664;52.514;13.440;2023-02-15T08:44:36;3.30;85.40
13198;DHT22;6664;52.514;13.440;2023-02-15T08:47:23;3.60;84.40
13198;DHT22;6664;52.514;13.440;2023-02-15T08:50:11;3.60;82.50
13198;DHT22;6664;52.514;13.440;2023-02-15T08:52:57;3.80;81.10
13198;DHT22;6664;52.514;13.440;2023-02-15T08:55:42;3.70;79.30
13198;DHT22;6664;52.514;13.440;2023-02-15T08:58:29;3.70;79.80
13198;DHT22;6664;52.514;13.440;2023-02-15T09:01:21;4.10;78.40
13198;DHT22;6664;52.514;13.440;2023-02-15T09:04:07;4.20;77.00
13198;DHT22;6664;52.514;13.440;2023-02-15T09:06:57;4.40;76.30
13198;DHT22;6664;52.514;13.440;2023-02-15T09:09:43;4.40;74.90
13198;DHT22;6664;52.514;13.440;2023-02-15T09:12:30;4.50;74.80
13198;DHT22;6664;52.514;13.440;2023-02-15T09:15:18;3.80;73.00
13198;DHT22;6664;52.514;13.440;2023-02-15T09:18:03;3.80;76.80
13198;DHT22;6664;52.514;13.440;2023-02-15T09:20:51;4.00;75.20
13198;DHT22;6664;52.514;13.440;2023-02-15T09:23:37;4.40;74.70
13198;DHT22;6664;52.514;13.440;2023-02-15T09:26:23;4.60;73.40
13198;DHT22;6664;52.514;13.440;2023-02-15T09:29:10;4.80;72.90
13198;DHT22;6664;52.514;13.440;2023-02-15T09:31:56;4.90;71.70
13198;DHT22;6664;52.514;13.440;2023-02-15T09:34:42;4.80;70.90
13198;DHT22;6664;52.514;13.440;2023-02-15T09:37:27;4.60;70.60
13198;DHT22;6664;52.514;13.440;2023-02-15T09:40:15;4.60;69.60
13198;DHT22;6664;52.514;13.440;2023-02-15T09:43:33;4.90;70.20
13198;DHT22;6664;52.514;13.440;2023-02-15T09:46:25;5.20;68.80
13198;DHT22;6664;52.514;13.440;2023-02-15T09:49:31;5.60;67.40
13198;DHT22;6664;52.514;13.440;2023-02-15T09:52:40;5.70;66.10
13198;DHT22;6664;52.514;13.440;2023-02-15T09:59:05;5.70;64.10
13198;DHT22;6664;52.514;13.440;2023-02-15T10:08:54;5.90;61.70
13198;DHT22;6664;52.514;13.440;2023-02-15T10:12:02;5.70;62.00
13198;DHT22;6664;52.514;13.440;2023-02-15T10:24:49;5.00;64.10
13198;DHT22;6664;52.514;13.440;2023-02-15T10:27:45;4.90;65.00
13198;DHT22;6664;52.514;13.440;2023-02-15T10:33:40;4.60;66.60
13198;DHT22;6664;52.514;13.440;2023-02-15T10:42:25;4.10;69.60
13198;DHT22;6664;52.514;13.440;2023-02-15T10:49:01;4.00;72.20
13198;DHT22;6664;52.514;13.440;2023-02-15T10:52:15;4.00;73.20
13198;DHT22;6664;52.514;13.440;2023-02-15T10:55:18;4.00;74.10
13198;DHT22;6664;52.514;13.440;2023-02-15T11:02:03;4.00;75.80
13198;DHT22;6664;52.514;13.440;2023-02-15T11:04:53;4.00;76.60
13198;DHT22;6664;52.514;13.440;2023-02-15T11:07:43;4.00;77.40
13198;DHT22;6664;52.514;13.440;2023-02-15T11:10:44;4.10;78.20
13198;DHT22;6664;52.514;13.440;2023-02-15T11:13:41;4.10;78.10
13198;DHT22;6664;52.514;13.440;2023-02-15T11:16:43;4.20;77.80
13198;DHT22;6664;52.514;13.440;2023-02-15T11:19:33;4.30;78.10
13198;DHT22;6664;52.514;13.440;2023-02-15T11:22:19;4.20;77.60
13198;DHT22;6664;52.514;13.440;2023-02-15T11:25:19;4.30;77.80
13198;DHT22;6664;52.514;13.440;2023-02-15T11:28:18;4.40;77.60
13198;DHT22;6664;52.514;13.440;2023-02-15T11:31:15;4.50;77.70
13198;DHT22;6664;52.514;13.440;2023-02-15T11:34:05;4.50;77.10
13198;DHT22;6664;52.514;13.440;2023-02-15T11:37:05;4.50;76.90
13198;DHT22;6664;52.514;13.440;2023-02-15T11:39:55;4.50;76.50
13198;DHT22;6664;52.514;13.440;2023-02-15T11:42:41;4.60;76.60
13198;DHT22;6664;52.514;13.440;2023-02-15T11:45:29;4.70;76.70
13198;DHT22;6664;52.514;13.440;2023-02-15T11:48:15;4.80;76.30
13198;DHT22;6664;52.514;13.440;2023-02-15T11:51:02;4.90;75.30
13198;DHT22;6664;52.514;13.440;2023-02-15T11:53:51;5.00;75.20
13198;DHT22;6664;52.514;13.440;2023-02-15T11:56:37;5.10;74.90
13198;DHT22;6664;52.514;13.440;2023-02-15T11:59:29;5.20;74.60
13198;DHT22;6664;52.514;13.440;2023-02-15T12:02:22;5.30;74.40
13198;DHT22;6664;52.514;13.440;2023-02-15T12:05:13;5.40;74.00
13198;DHT22;6664;52.514;13.440;2023-02-15T12:08:03;5.40;73.40
13198;DHT22;6664;52.514;13.440;2023-02-15T12:11:15;5.50;72.80
13198;DHT22;6664;52.514;13.440;2023-02-15T12:14:13;5.60;72.20
13198;DHT22;6664;52.514;13.440;2023-02-15T12:17:00;5.70;71.60
13198;DHT22;6664;52.514;13.440;2023-02-15T12:19:52;5.80;71.20
13198;DHT22;6664;52.514;13.440;2023-02-15T12:22:39;6.00;70.80
13198;DHT22;6664;52.514;13.440;2023-02-15T12:25:36;6.10;70.40
13198;DHT22;6664;52.514;13.440;2023-02-15T12:28:34;6.10;69.40
13198;DHT22;6664;52.514;13.440;2023-02-15T12:31:32;6.30;69.50
13198;DHT22;6664;52.514;13.440;2023-02-15T12:34:32;6.40;68.30
13198;DHT22;6664;52.514;13.440;2023-02-15T12:37:27;6.50;68.40
13198;DHT22;6664;52.514;13.440;2023-02-15T12:40:23;6.60;67.60
13198;DHT22;6664;52.514;13.440;2023-02-15T12:43:34;6.70;67.00
13198;DHT22;6664;52.514;13.440;2023-02-15T12:46:23;6.80;66.70
13198;DHT22;6664;52.514;13.440;2023-02-15T12:52:03;7.10;65.60
13198;DHT22;6664;52.514;13.440;2023-02-15T12:54:51;7.20;64.80
13198;DHT22;6664;52.514;13.440;2023-02-15T12:57:37;7.40;64.30
13198;DHT22;6664;52.514;13.440;2023-02-15T13:00:28;7.60;63.60
13198;DHT22;6664;52.514;13.440;2023-02-15T13:03:19;7.80;62.50
13198;DHT22;6664;52.514;13.440;2023-02-15T13:06:06;8.10;61.70
13198;DHT22;6664;52.514;13.440;2023-02-15T13:08:56;8.40;60.90
13198;DHT22;6664;52.514;13.440;2023-02-15T13:11:43;9.00;58.90
13198;DHT22;6664;52.514;13.440;2023-02-15T13:14:32;10.00;55.40
13198;DHT22;6664;52.514;13.440;2023-02-15T13:17:26;15.90;43.20
13198;DHT22;6664;52.514;13.440;2023-02-15T13:20:21;20.50;27.20
13198;DHT22;6664;52.514;13.440;2023-02-15T13:23:28;23.60;19.00
13198;DHT22;6664;52.514;13.440;2023-02-15T13:26:18;25.70;11.40
13198;DHT22;6664;52.514;13.440;2023-02-15T13:29:10;22.20;8.90
13198;DHT22;6664;52.514;13.440;2023-02-15T13:32:00;20.60;11.90
13198;DHT22;6664;52.514;13.440;2023-02-15T13:34:51;20.90;11.40
13198;DHT22;6664;52.514;13.440;2023-02-15T13:40:55;27.10;7.40
13198;DHT22;6664;52.514;13.440;2023-02-15T13:47:18;29.30;1.00
13198;DHT22;6664;52.514;13.440;2023-02-15T13:59:17;26.90;1.00
13198;DHT22;6664;52.514;13.440;2023-02-15T14:09:01;16.60;12.20
13198;DHT22;6664;52.514;13.440;2023-02-15T14:18:21;13.70;21.10
13198;DHT22;6664;52.514;13.440;2023-02-15T14:25:18;12.50;25.50
13198;DHT22;6664;52.514;13.440;2023-02-15T14:28:22;12.00;27.10
13198;DHT22;6664;52.514;13.440;2023-02-15T14:31:12;11.80;28.20
13198;DHT22;6664;52.514;13.440;2023-02-15T14:33:59;11.60;28.90
13198;DHT22;6664;52.514;13.440;2023-02-15T14:36:49;11.40;30.00
13198;DHT22;6664;52.514;13.440;2023-02-15T14:39:51;11.10;31.10
13198;DHT22;6664;52.514;13.440;2023-02-15T14:49:11;10.50;34.20
13198;DHT22;6664;52.514;13.440;2023-02-15T14:52:00;10.30;35.60
13198;DHT22;6664;52.514;13.440;2023-02-15T14:57:34;10.00;37.20
13198;DHT22;6664;52.514;13.440;2023-02-15T15:00:33;9.90;39.20
13198;DHT22;6664;52.514;13.440;2023-02-15T15:03:26;9.80;39.80
13198;DHT22;6664;52.514;13.440;2023-02-15T15:06:34;9.70;40.30
13198;DHT22;6664;52.514;13.440;2023-02-15T15:09:28;9.70;41.10
13198;DHT22;6664;52.514;13.440;2023-02-15T15:15:34;9.50;42.30
13198;DHT22;6664;52.514;13.440;2023-02-15T15:18:45;9.40;43.20
13198;DHT22;6664;52.514;13.440;2023-02-15T15:24:56;9.30;44.20
13198;DHT22;6664;52.514;13.440;2023-02-15T15:28:00;9.20;44.70
13198;DHT22;6664;52.514;13.440;2023-02-15T15:30:46;9.10;45.30
13198;DHT22;6664;52.514;13.440;2023-02-15T15:40:01;8.90;46.90
13198;DHT22;6664;52.514;13.440;2023-02-15T15:43:24;8.70;47.60
13198;DHT22;6664;52.514;13.440;2023-02-15T15:49:29;8.40;49.80
13198;DHT22;6664;52.514;13.440;2023-02-15T15:52:18;8.20;50.80
13198;DHT22;6664;52.514;13.440;2023-02-15T15:55:17;8.00;51.00
13198;DHT22;6664;52.514;13.440;2023-02-15T15:58:06;7.90;52.00
13198;DHT22;6664;52.514;13.440;2023-02-15T16:01:06;7.70;53.20
13198;DHT22;6664;52.514;13.440;2023-02-15T16:03:55;7.50;54.40
13198;DHT22;6664;52.514;13.440;2023-02-15T16:06:41;7.40;55.60
13198;DHT22;6664;52.514;13.440;2023-02-15T16:09:30;7.10;56.20
13198;DHT22;6664;52.514;13.440;2023-02-15T16:12:17;7.00;58.10
13198;DHT22;6664;52.514;13.440;2023-02-15T16:15:20;6.80;59.90
13198;DHT22;6664;52.514;13.440;2023-02-15T16:18:13;6.60;61.40
13198;DHT22;6664;52.514;13.440;2023-02-15T16:21:00;6.50;62.50
13198;DHT22;6664;52.514;13.440;2023-02-15T16:30:20;6.20;66.60
13198;DHT22;6664;52.514;13.440;2023-02-15T16:33:10;6.20;69.00
13198;DHT22;6664;52.514;13.440;2023-02-15T16:35:58;6.00;69.40
13198;DHT22;6664;52.514;13.440;2023-02-15T16:41:40;5.90;72.40
13198;DHT22;6664;52.514;13.440;2023-02-15T16:44:31;5.80;72.70
13198;DHT22;6664;52.514;13.440;2023-02-15T16:47:23;5.90;74.10
13198;DHT22;6664;52.514;13.440;2023-02-15T16:50:24;5.80;73.90
13198;DHT22;6664;52.514;13.440;2023-02-15T16:53:18;5.80;75.10
13198;DHT22;6664;52.514;13.440;2023-02-15T16:56:07;5.60;75.90
13198;DHT22;6664;52.514;13.440;2023-02-15T16:58:56;5.50;77.00
13198;DHT22;6664;52.514;13.440;2023-02-15T17:01:44;5.60;78.20
13198;DHT22;6664;52.514;13.440;2023-02-15T17:04:31;5.50;79.30
13198;DHT22;6664;52.514;13.440;2023-02-15T17:07:23;5.50;79.60
13198;DHT22;6664;52.514;13.440;2023-02-15T17:10:29;5.50;80.80
13198;DHT22;6664;52.514;13.440;2023-02-15T17:13:16;5.50;81.20
13198;DHT22;6664;52.514;13.440;2023-02-15T17:18:48;5.40;83.20
13198;DHT22;6664;52.514;13.440;2023-02-15T17:21:41;5.30;83.60
13198;DHT22;6664;52.514;13.440;2023-02-15T17:24:41;5.30;84.60
13198;DHT22;6664;52.514;13.440;2023-02-15T17:27:31;5.00;84.50
13198;DHT22;6664;52.514;13.440;2023-02-15T17:30:28;4.90;86.10
13198;DHT22;6664;52.514;13.440;2023-02-15T17:33:35;4.90;87.90
13198;DHT22;6664;52.514;13.440;2023-02-15T17:36:24;4.80;88.90
13198;DHT22;6664;52.514;13.440;2023-02-15T17:39:21;4.80;90.00
13198;DHT22;6664;52.514;13.440;2023-02-15T17:42:10;4.70;90.40
13198;DHT22;6664;52.514;13.440;2023-02-15T17:44:55;4.70;90.70
13198;DHT22;6664;52.514;13.440;2023-02-15T17:47:41;4.60;91.20
13198;DHT22;6664;52.514;13.440;2023-02-15T17:50:27;4.50;91.50
13198;DHT22;6664;52.514;13.440;2023-02-15T17:53:19;4.50;92.00
13198;DHT22;6664;52.514;13.440;2023-02-15T17:56:04;4.40;92.30
13198;DHT22;6664;52.514;13.440;2023-02-15T17:58:54;4.30;92.80
13198;DHT22;6664;52.514;13.440;2023-02-15T18:01:45;4.40;93.60
13198;DHT22;6664;52.514;13.440;2023-02-15T18:04:50;4.40;94.00
13198;DHT22;6664;52.514;13.440;2023-02-15T18:07:54;4.30;94.50
13198;DHT22;6664;52.514;13.440;2023-02-15T18:10:59;4.20;95.00
13198;DHT22;6664;52.514;13.440;2023-02-15T18:14:08;4.30;96.10
13198;DHT22;6664;52.514;13.440;2023-02-15T18:16:54;4.30;95.80
13198;DHT22;6664;52.514;13.440;2023-02-15T18:19:42;4.10;95.70
13198;DHT22;6664;52.514;13.440;2023-02-15T18:22:46;4.10;96.30
13198;DHT22;6664;52.514;13.440;2023-02-15T18:25:31;4.00;96.90
13198;DHT22;6664;52.514;13.440;2023-02-15T18:28:17;4.10;97.70
13198;DHT22;6664;52.514;13.440;2023-02-15T18:31:05;4.00;97.80
13198;DHT22;6664;52.514;13.440;2023-02-15T18:33:58;4.00;98.30
13198;DHT22;6664;52.514;13.440;2023-02-15T18:36:44;4.00;98.50
13198;DHT22;6664;52.514;13.440;2023-02-15T18:39:37;3.90;98.80
13198;DHT22;6664;52.514;13.440;2023-02-15T18:42:25;3.90;99.50
13198;DHT22;6664;52.514;13.440;2023-02-15T18:45:16;3.80;99.60
13198;DHT22;6664;52.514;13.440;2023-02-15T18:48:02;3.90;99.90
13198;DHT22;6664;52.514;13.440;2023-02-15T18:50:49;4.00;99.90
13198;DHT22;6664;52.514;13.440;2023-02-15T18:53:35;3.90;99.90
13198;DHT22;6664;52.514;13.440;2023-02-15T18:56:24;3.80;99.90
13198;DHT22;6664;52.514;13.440;2023-02-15T18:59:18;3.70;99.90
13198;DHT22;6664;52.514;13.440;2023-02-15T19:02:13;3.70;99.90
13198;DHT22;6664;52.514;13.440;2023-02-15T19:05:02;3.80;99.90
13198;DHT22;6664;52.514;13.440;2023-02-15T19:07:48;3.60;99.90
13198;DHT22;6664;52.514;13.440;2023-02-15T19:10:34;3.80;99.90
13198;DHT22;6664;52.514;13.440;2023-02-15T19:13:23;3.70;99.90
13198;DHT22;6664;52.514;13.440;2023-02-15T19:16:33;3.60;99.90
13198;DHT22;6664;52.514;13.440;2023-02-15T19:19:22;3.60;99.90
13198;DHT22;6664;52.514;13.440;2023-02-15T19:22:18;3.50;99.90
13198;DHT22;6664;52.514;13.440;2023-02-15T19:25:12;3.60;99.90
13198;DHT22;6664;52.514;13.440;2023-02-15T19:27:58;3.60;99.90
13198;DHT22;6664;52.514;13.440;2023-02-15T19:30:44;3.60;99.90
13198;DHT22;6664;52.514;13.440;2023-02-15T19:33:50;3.50;99.90
13198;DHT22;6664;52.514;13.440;2023-02-15T19:36:36;3.50;99.90
13198;DHT22;6664;52.514;13.440;2023-02-15T19:39:31;3.50;99.90
13198;DHT22;6664;52.514;13.440;2023-02-15T19:42:22;3.50;99.90
13198;DHT22;6664;52.514;13.440;2023-02-15T19:45:23;3.50;99.90
13198;DHT22;6664;52.514;13.440;2023-02-15T19:48:11;3.50;99.90
13198;DHT22;6664;52.514;13.440;2023-02-15T19:50:58;3.40;99.90
13198;DHT22;6664;52.514;13.440;2023-02-15T19:53:48;3.40;99.90
13198;DHT22;6664;52.514;13.440;2023-02-15T19:56:38;3.40;99.90
13198;DHT22;6664;52.514;13.440;2023-02-15T19:59:30;3.30;99.90
13198;DHT22;6664;52.514;13.440;2023-02-15T20:02:18;3.30;99.90
13198;DHT22;6664;52.514;13.440;2023-02-15T20:05:07;3.30;99.90
13198;DHT22;6664;52.514;13.440;2023-02-15T20:07:53;3.20;99.90
13198;DHT22;6664;52.514;13.440;2023-02-15T20:10:39;3.20;99.90
13198;DHT22;6664;52.514;13.440;2023-02-15T20:13:27;3.20;99.90
13198;DHT22;6664;52.514;13.440;2023-02-15T20:16:13;3.20;99.90
13198;DHT22;6664;52.514;13.440;2023-02-15T20:18:59;3.10;99.90
13198;DHT22;6664;52.514;13.440;2023-02-15T20:21:46;3.10;99.90
13198;DHT22;6664;52.514;13.440;2023-02-15T20:24:38;3.10;99.90
13198;DHT22;6664;52.514;13.440;2023-02-15T20:27:26;3.00;99.90
13198;DHT22;6664;52.514;13.440;2023-02-15T20:30:21;3.00;99.90
13198;DHT22;6664;52.514;13.440;2023-02-15T20:33:07;3.00;99.90